Time;durP1;ratioP1;P1;durP2;ratioP2;P2;SDS_P1;SDS_P2;PMS_P1;PMS_P2;Temp;Humidity;BMP_temperature;BMP_pressure;BME280_temperature;BME280_humidity;BME280_pressure;Samples;Min_cycle;Max_cycle;Signal;HPM_P1;HPM_P2
2021/03/31 00:00:53;;;;;;;11.70;10.50;;;8.80;99.90;;;;;;5068198;28;20205;-68
2021/03/31 00:03:20;;;;;;;14.87;10.60;;;8.80;1.00;;;;;;5069794;28;20232;-68
2021/03/31 00:05:46;;;;;;;12.13;10.07;;;8.80;99.90;;;;;;5072183;28;20598;-68
2021/03/31 00:08:12;;;;;;;12.53;11.03;;;8.70;99.90;;;;;;5072123;28;20464;-69
2021/03/31 00:10:44;;;;;;;12.67;10.63;;;8.70;1.00;;;;;;5070870;28;20450;-69
2021/03/31 00:13:11;;;;;;;11.13;9.40;;;8.60;1.00;;;;;;5071869;28;20650;-69
2021/03/31 00:15:37;;;;;;;12.00;9.40;;;8.60;1.00;;;;;;5070636;28;20437;-68
2021/03/31 00:18:08;;;;;;;11.60;10.40;;;8.60;1.00;;;;;;5072046;28;20439;-68
2021/03/31 00:20:34;;;;;;;17.97;10.30;;;8.60;1.00;;;;;;5068749;28;20502;-69
2021/03/31 00:23:03;;;;;;;10.93;9.70;;;8.50;1.00;;;;;;5072479;28;20462;-69
2021/03/31 00:25:29;;;;;;;11.57;10.37;;;8.50;1.00;;;;;;5071021;28;20492;-68
2021/03/31 00:27:54;;;;;;;14.10;10.00;;;8.50;1.00;;;;;;5072181;28;20431;-68
2021/03/31 00:30:21;;;;;;;11.40;10.20;;;8.40;1.00;;;;;;5071068;28;20193;-69
2021/03/31 00:32:47;;;;;;;11.30;10.07;;;8.40;1.00;;;;;;5071803;28;20216;-69
2021/03/31 00:35:13;;;;;;;14.90;11.67;;;8.40;1.00;;;;;;5069577;28;20476;-70
2021/03/31 00:37:38;;;;;;;11.93;10.73;;;8.40;1.00;;;;;;5071113;28;20530;-68
2021/03/31 00:40:18;;;;;;;11.80;10.30;;;8.40;1.00;;;;;;5072055;28;20438;-69
2021/03/31 00:42:45;;;;;;;11.77;9.93;;;8.30;1.00;;;;;;5071250;28;20188;-69
2021/03/31 00:45:12;;;;;;;14.40;11.20;;;8.30;1.00;;;;;;5071386;28;20431;-69
2021/03/31 00:47:37;;;;;;;13.07;11.10;;;8.20;1.00;;;;;;5071343;28;20442;-68
2021/03/31 00:50:06;;;;;;;12.23;10.10;;;8.20;1.00;;;;;;5071210;28;20965;-68
2021/03/31 00:52:31;;;;;;;13.50;10.97;;;8.20;1.00;;;;;;5070339;28;20278;-69
2021/03/31 00:54:57;;;;;;;13.90;11.60;;;8.20;1.00;;;;;;5070675;28;20451;-68
2021/03/31 00:57:23;;;;;;;14.67;11.43;;;8.10;1.00;;;;;;5070928;28;20219;-68
2021/03/31 00:59:50;;;;;;;14.67;12.40;;;8.10;1.00;;;;;;5072039;28;20183;-68
2021/03/31 01:02:15;;;;;;;13.30;11.30;;;8.00;1.00;;;;;;5066183;28;20561;-69
2021/03/31 01:04:41;;;;;;;12.93;11.63;;;8.00;1.00;;;;;;5071851;28;20553;-68
2021/03/31 01:07:06;;;;;;;14.63;12.10;;;7.90;1.00;;;;;;5070960;28;20192;-68
2021/03/31 01:09:32;;;;;;;16.40;12.20;;;7.80;1.00;;;;;;5071106;28;20654;-68
2021/03/31 01:12:10;;;;;;;18.53;11.73;;;7.80;1.00;;;;;;5074006;28;20642;-68
2021/03/31 01:14:59;;;;;;;17.10;13.73;;;7.70;1.00;;;;;;5072834;28;20445;-69
2021/03/31 01:17:33;;;;;;;16.77;13.25;;;7.60;1.00;;;;;;5070629;28;21027;-69
2021/03/31 01:20:33;;;;;;;16.40;12.90;;;7.60;1.00;;;;;;5061203;28;20181;-68
2021/03/31 01:23:13;;;;;;;16.30;13.00;;;7.50;1.00;;;;;;5069335;28;20493;-68
2021/03/31 01:25:57;;;;;;;16.08;12.30;;;7.50;1.00;;;;;;5070907;28;20187;-69
2021/03/31 01:28:31;;;;;;;14.83;13.10;;;7.50;1.00;;;;;;5063498;28;20212;-69
2021/03/31 01:31:21;;;;;;;15.55;12.75;;;7.40;1.00;;;;;;5070564;28;20438;-68
2021/03/31 01:34:30;;;;;;;16.25;12.50;;;7.40;1.00;;;;;;5070461;28;20191;-68
2021/03/31 01:36:59;;;;;;;14.30;12.00;;;7.40;1.00;;;;;;5028561;28;20223;-69
2021/03/31 01:39:26;;;;;;;14.00;11.05;;;7.40;1.00;;;;;;5030726;28;21271;-68
2021/03/31 01:41:54;;;;;;;12.73;11.23;;;7.40;1.00;;;;;;5044577;28;20259;-69
2021/03/31 01:44:22;;;;;;;13.10;11.70;;;7.30;1.00;;;;;;5064212;28;20188;-69
2021/03/31 01:46:58;;;;;;;15.23;10.75;;;7.30;1.00;;;;;;5056701;28;20952;-69
2021/03/31 01:49:26;;;;;;;13.32;11.05;;;7.30;1.00;;;;;;5067519;28;20297;-68
2021/03/31 01:51:58;;;;;;;14.50;11.90;;;7.30;1.00;;;;;;5070265;28;20303;-68
2021/03/31 01:54:25;;;;;;;15.10;11.25;;;7.20;1.00;;;;;;5070403;28;20466;-69
2021/03/31 01:56:52;;;;;;;12.95;10.95;;;7.20;1.00;;;;;;5069475;28;20216;-68
2021/03/31 01:59:20;;;;;;;13.68;11.15;;;7.20;1.00;;;;;;5064308;28;20180;-68
2021/03/31 02:01:54;;;;;;;14.50;10.45;;;7.20;1.00;;;;;;5068877;28;20299;-68
2021/03/31 02:04:22;;;;;;;11.48;10.00;;;7.20;1.00;;;;;;5069942;28;20215;-69
2021/03/31 02:06:48;;;;;;;11.17;10.10;;;7.10;1.00;;;;;;5070566;28;20187;-69
2021/03/31 02:09:15;;;;;;;12.75;10.50;;;7.10;1.00;;;;;;5077860;28;20511;-69
2021/03/31 02:11:43;;;;;;;14.63;11.88;;;7.10;1.00;;;;;;5070326;28;21077;-68
2021/03/31 02:14:12;;;;;;;15.52;11.23;;;7.00;1.00;;;;;;5068288;28;20194;-69
2021/03/31 02:16:38;;;;;;;13.18;11.15;;;7.00;1.00;;;;;;5070193;28;20734;-68
2021/03/31 02:19:04;;;;;;;12.30;10.48;;;7.00;1.00;;;;;;5068370;28;20850;-68
2021/03/31 02:21:32;;;;;;;15.32;11.15;;;7.00;1.00;;;;;;5070048;28;20281;-69
2021/03/31 02:23:58;;;;;;;13.17;10.83;;;7.00;1.00;;;;;;5068656;28;20186;-68
2021/03/31 02:26:27;;;;;;;13.77;11.30;;;6.90;1.00;;;;;;5068344;28;20441;-68
2021/03/31 02:28:53;;;;;;;14.32;12.15;;;6.90;1.00;;;;;;5069554;28;20587;-69
2021/03/31 02:31:20;;;;;;;14.70;11.77;;;6.80;1.00;;;;;;5068570;28;20184;-69
2021/03/31 02:33:46;;;;;;;15.73;11.15;;;6.80;1.00;;;;;;5064623;28;20226;-68
2021/03/31 02:36:14;;;;;;;20.80;13.38;;;6.70;1.00;;;;;;5069311;28;20190;-68
2021/03/31 02:38:41;;;;;;;18.42;12.50;;;6.70;1.00;;;;;;5069169;28;20236;-68
2021/03/31 02:41:07;;;;;;;15.20;11.68;;;6.70;1.00;;;;;;5068675;28;20213;-68
2021/03/31 02:43:36;;;;;;;17.98;12.20;;;6.70;1.00;;;;;;5069551;28;20233;-68
2021/03/31 02:46:03;;;;;;;13.80;11.30;;;6.60;1.00;;;;;;5068514;28;20195;-68
2021/03/31 02:48:30;;;;;;;20.27;12.10;;;6.60;1.00;;;;;;5069838;28;20236;-68
2021/03/31 02:50:58;;;;;;;14.85;12.40;;;6.50;1.00;;;;;;5068037;28;20629;-68
2021/03/31 02:53:25;;;;;;;14.77;11.93;;;6.40;1.00;;;;;;5068299;28;20195;-69
2021/03/31 02:55:51;;;;;;;14.85;11.50;;;6.40;1.00;;;;;;5066736;28;20194;-68
2021/03/31 02:58:17;;;;;;;14.48;11.93;;;6.40;3.20;;;;;;5069249;28;20268;-68
2021/03/31 03:00:42;;;;;;;14.82;11.80;;;6.40;4.70;;;;;;5068560;28;20997;-67
2021/03/31 03:03:09;;;;;;;15.87;12.30;;;6.40;5.20;;;;;;5067226;28;20238;-68
2021/03/31 03:05:35;;;;;;;14.77;11.88;;;6.40;4.50;;;;;;5068708;28;20898;-68
2021/03/31 03:08:03;;;;;;;14.30;10.95;;;6.30;6.50;;;;;;5069653;28;20179;-69
2021/03/31 03:10:29;;;;;;;13.05;11.65;;;6.30;8.40;;;;;;5068301;28;20211;-68
2021/03/31 03:12:57;;;;;;;13.50;11.23;;;6.30;5.80;;;;;;5068651;28;20590;-67
2021/03/31 03:15:26;;;;;;;14.70;11.27;;;6.30;5.20;;;;;;5073966;28;20253;-68
2021/03/31 03:17:51;;;;;;;15.63;11.00;;;6.30;7.40;;;;;;5064520;28;21050;-68
2021/03/31 03:20:18;;;;;;;14.10;11.33;;;6.20;8.40;;;;;;5068854;28;20274;-67
2021/03/31 03:22:50;;;;;;;13.93;11.57;;;6.20;10.50;;;;;;5068781;28;20530;-67
2021/03/31 03:25:18;;;;;;;13.52;10.82;;;6.10;10.40;;;;;;5068812;28;20200;-68
2021/03/31 03:27:45;;;;;;;14.95;11.82;;;6.10;10.50;;;;;;5067890;28;20215;-67
2021/03/31 03:30:13;;;;;;;14.18;10.88;;;6.10;9.80;;;;;;5068368;28;20224;-67
2021/03/31 03:32:42;;;;;;;15.55;11.35;;;6.10;8.70;;;;;;5068049;28;20173;-69
2021/03/31 03:35:13;;;;;;;16.88;11.70;;;6.10;6.50;;;;;;5067189;28;20187;-68
2021/03/31 03:37:39;;;;;;;13.70;11.52;;;6.10;4.20;;;;;;5066446;28;20633;-69
2021/03/31 03:40:06;;;;;;;13.80;10.85;;;6.00;7.30;;;;;;5068669;28;20276;-68
2021/03/31 03:42:31;;;;;;;13.20;11.48;;;6.00;13.30;;;;;;5068723;28;20210;-68
2021/03/31 03:45:01;;;;;;;14.40;11.90;;;5.90;15.70;;;;;;5068875;28;20671;-69
2021/03/31 03:47:29;;;;;;;14.65;12.10;;;5.90;16.50;;;;;;5067981;28;20196;-69
2021/03/31 03:49:54;;;;;;;14.20;10.70;;;5.90;17.00;;;;;;5068876;28;20219;-69
2021/03/31 03:52:21;;;;;;;14.10;11.30;;;5.80;17.10;;;;;;5067770;28;20181;-69
2021/03/31 03:54:54;;;;;;;16.83;12.40;;;5.80;17.90;;;;;;5061018;28;20194;-68
2021/03/31 03:57:25;;;;;;;16.33;12.43;;;5.70;17.90;;;;;;5067539;28;20194;-68
2021/03/31 03:59:51;;;;;;;15.35;11.70;;;5.70;19.80;;;;;;5068821;28;20182;-68
2021/03/31 04:02:17;;;;;;;17.73;12.57;;;5.70;20.00;;;;;;5067253;28;20218;-68
2021/03/31 04:04:42;;;;;;;15.65;12.40;;;5.70;20.60;;;;;;5067226;28;20703;-67
2021/03/31 04:07:08;;;;;;;15.03;12.30;;;5.60;21.10;;;;;;5066836;28;20189;-68
2021/03/31 04:09:35;;;;;;;15.50;12.40;;;5.60;21.60;;;;;;5068720;28;20193;-67
2021/03/31 04:12:01;;;;;;;14.25;12.60;;;5.60;22.70;;;;;;5067461;28;20192;-68
2021/03/31 04:14:27;;;;;;;14.68;12.25;;;5.60;24.00;;;;;;5068632;28;20189;-68
2021/03/31 04:16:55;;;;;;;22.10;13.20;;;5.50;25.40;;;;;;5067505;28;20199;-68
2021/03/31 04:19:23;;;;;;;14.25;12.30;;;5.60;28.70;;;;;;5065203;28;20190;-68
2021/03/31 04:21:49;;;;;;;14.48;12.20;;;5.50;29.10;;;;;;5067512;28;20215;-68
2021/03/31 04:24:15;;;;;;;15.17;12.53;;;5.50;31.60;;;;;;5064125;28;20278;-68
2021/03/31 04:26:42;;;;;;;16.05;13.23;;;5.50;33.30;;;;;;5068477;28;20191;-68
2021/03/31 04:29:08;;;;;;;14.05;11.93;;;5.40;34.50;;;;;;5060405;28;20197;-67
2021/03/31 04:31:36;;;;;;;16.08;12.98;;;5.50;35.40;;;;;;5069893;28;20194;-67
2021/03/31 04:34:04;;;;;;;15.52;13.35;;;5.50;37.10;;;;;;5070037;28;20189;-67
2021/03/31 04:36:29;;;;;;;18.77;13.02;;;5.50;36.40;;;;;;5068299;28;20315;-68
2021/03/31 04:38:55;;;;;;;15.47;13.10;;;5.50;42.00;;;;;;5067575;28;20708;-67
2021/03/31 04:41:21;;;;;;;14.97;12.67;;;5.50;43.30;;;;;;5067820;28;20471;-67
2021/03/31 04:43:46;;;;;;;17.67;12.07;;;5.40;41.70;;;;;;5068068;28;20268;-68
2021/03/31 04:46:12;;;;;;;15.10;12.20;;;5.40;43.60;;;;;;5068887;28;20182;-69
2021/03/31 04:48:38;;;;;;;17.03;13.67;;;5.40;42.20;;;;;;5066525;28;20363;-68
2021/03/31 04:51:05;;;;;;;15.57;11.95;;;5.40;42.90;;;;;;5071781;28;20242;-68
2021/03/31 04:53:31;;;;;;;14.60;12.15;;;5.30;47.00;;;;;;5072025;28;20193;-67
2021/03/31 04:55:57;;;;;;;19.87;12.77;;;5.30;47.20;;;;;;5071274;28;20753;-67
2021/03/31 04:58:22;;;;;;;18.63;13.30;;;5.30;49.40;;;;;;5071284;28;20214;-68
2021/03/31 05:00:48;;;;;;;19.10;12.87;;;5.30;55.60;;;;;;5064757;28;20217;-68
2021/03/31 05:03:13;;;;;;;21.53;14.17;;;5.20;58.20;;;;;;5071406;28;20244;-68
2021/03/31 05:05:39;;;;;;;17.60;13.10;;;5.30;63.00;;;;;;5071079;28;20185;-68
2021/03/31 05:08:06;;;;;;;20.03;13.10;;;5.20;67.70;;;;;;5071126;28;20199;-68
2021/03/31 05:10:31;;;;;;;18.05;13.93;;;5.30;69.90;;;;;;5066724;28;20259;-68
2021/03/31 05:12:57;;;;;;;17.37;14.40;;;5.30;69.80;;;;;;5077913;28;20240;-68
2021/03/31 05:15:22;;;;;;;16.43;12.70;;;5.40;69.50;;;;;;5074766;28;20648;-68
2021/03/31 05:17:48;;;;;;;18.90;13.90;;;5.50;66.00;;;;;;5069889;28;20179;-68
2021/03/31 05:20:14;;;;;;;18.87;13.00;;;5.50;63.10;;;;;;5070561;28;20185;-68
2021/03/31 05:22:40;;;;;;;17.27;13.55;;;5.60;57.50;;;;;;5071517;28;20585;-68
2021/03/31 05:25:07;;;;;;;17.30;13.63;;;5.70;50.40;;;;;;5067779;28;20318;-68
2021/03/31 05:27:34;;;;;;;20.48;12.75;;;5.70;48.20;;;;;;5069076;28;20668;-68
2021/03/31 05:30:00;;;;;;;18.55;14.02;;;5.70;45.40;;;;;;5070324;28;20190;-68
2021/03/31 05:32:26;;;;;;;15.32;12.95;;;5.80;40.90;;;;;;5069298;28;20190;-68
2021/03/31 05:34:52;;;;;;;15.17;11.70;;;5.80;36.90;;;;;;5068631;28;20836;-68
2021/03/31 05:37:18;;;;;;;21.20;12.20;;;5.90;32.80;;;;;;5067929;28;20198;-69
2021/03/31 05:39:44;;;;;;;21.13;14.00;;;5.90;27.70;;;;;;5068504;28;20882;-69
2021/03/31 05:42:10;;;;;;;17.20;12.60;;;6.00;23.50;;;;;;5070119;28;20209;-68
2021/03/31 05:44:36;;;;;;;16.90;12.68;;;6.00;20.80;;;;;;5068624;28;20185;-68
2021/03/31 05:47:03;;;;;;;21.23;13.07;;;6.00;15.90;;;;;;5070597;28;20177;-68
2021/03/31 05:49:30;;;;;;;15.52;11.65;;;6.10;11.80;;;;;;5069620;28;20181;-69
2021/03/31 05:51:57;;;;;;;16.35;12.82;;;6.20;7.10;;;;;;5075347;28;20194;-69
2021/03/31 05:54:23;;;;;;;15.75;13.18;;;6.30;2.50;;;;;;5076033;28;20184;-69
2021/03/31 05:56:51;;;;;;;16.63;12.60;;;6.30;1.00;;;;;;5069507;28;20183;-69
2021/03/31 05:59:17;;;;;;;16.85;12.18;;;6.40;1.00;;;;;;5069618;28;20185;-69
2021/03/31 06:01:44;;;;;;;17.65;11.82;;;6.40;1.00;;;;;;5067709;28;20241;-68
2021/03/31 06:04:10;;;;;;;14.23;11.90;;;6.50;1.00;;;;;;5071636;28;20221;-68
2021/03/31 06:06:35;;;;;;;16.23;12.20;;;6.50;1.00;;;;;;5073175;28;20189;-69
2021/03/31 06:09:07;;;;;;;16.57;12.20;;;6.60;1.00;;;;;;5069112;28;20443;-68
2021/03/31 06:11:51;;;;;;;13.55;11.48;;;6.70;1.00;;;;;;5064039;28;21114;-68
2021/03/31 06:14:36;;;;;;;18.38;12.10;;;6.80;1.00;;;;;;5061860;28;20198;-69
2021/03/31 06:17:13;;;;;;;18.75;12.25;;;6.90;1.00;;;;;;5071884;28;20530;-68
2021/03/31 06:19:40;;;;;;;19.45;11.68;;;6.90;1.00;;;;;;5068848;28;20191;-68
2021/03/31 06:22:36;;;;;;;13.73;11.88;;;7.00;1.00;;;;;;5069283;28;20951;-69
2021/03/31 06:25:07;;;;;;;15.98;11.25;;;7.20;1.00;;;;;;5059998;28;20121;-67
2021/03/31 06:27:33;;;;;;;13.88;10.65;;;7.20;1.00;;;;;;5060601;28;20211;-68
2021/03/31 06:30:05;;;;;;;17.67;11.13;;;7.30;1.00;;;;;;5060282;28;20213;-68
2021/03/31 06:32:41;;;;;;;13.90;11.23;;;7.40;1.00;;;;;;5057717;28;20799;-68
2021/03/31 06:35:21;;;;;;;14.43;10.60;;;7.50;1.00;;;;;;5060613;28;20441;-69
2021/03/31 06:37:47;;;;;;;14.20;11.40;;;7.70;1.00;;;;;;5059915;28;20442;-69
2021/03/31 06:40:47;;;;;;;12.93;11.00;;;7.80;1.00;;;;;;5059847;28;20802;-69
2021/03/31 06:43:20;;;;;;;15.80;12.17;;;7.90;1.00;;;;;;5060033;28;20198;-69
2021/03/31 06:45:53;;;;;;;16.10;12.20;;;8.10;1.00;;;;;;5060080;28;20426;-69
2021/03/31 06:48:21;;;;;;;16.20;12.80;;;8.20;1.00;;;;;;5057429;28;20434;-69
2021/03/31 06:50:47;;;;;;;16.67;13.30;;;8.30;1.00;;;;;;5048614;28;20458;-72
2021/03/31 06:53:13;;;;;;;15.00;11.73;;;8.30;1.00;;;;;;5057992;28;20346;-73
2021/03/31 06:55:39;;;;;;;15.40;12.03;;;8.50;1.00;;;;;;5056627;28;20702;-72
2021/03/31 06:58:07;;;;;;;13.47;10.73;;;8.60;1.00;;;;;;5059667;28;20194;-73
2021/03/31 07:00:37;;;;;;;15.33;11.30;;;8.70;99.90;;;;;;5059686;28;20478;-73
2021/03/31 07:03:08;;;;;;;12.73;10.17;;;8.80;1.00;;;;;;5058162;28;20893;-72
2021/03/31 07:05:40;;;;;;;13.90;11.30;;;8.90;1.00;;;;;;5059795;28;20666;-72
2021/03/31 07:08:07;;;;;;;15.60;11.50;;;9.00;1.00;;;;;;5059523;28;20880;-72
2021/03/31 07:10:51;;;;;;;12.73;11.17;;;9.10;99.90;;;;;;5059301;28;20548;-73
2021/03/31 07:13:25;;;;;;;13.03;10.80;;;9.20;1.00;;;;;;5055206;28;20441;-73
2021/03/31 07:15:52;;;;;;;11.97;10.67;;;9.40;99.90;;;;;;5059113;28;20427;-74
2021/03/31 07:18:21;;;;;;;15.23;10.97;;;9.50;1.00;;;;;;5056724;28;20439;-72
2021/03/31 07:20:46;;;;;;;12.67;10.67;;;9.70;99.90;;;;;;5059894;28;20471;-69
2021/03/31 07:23:12;;;;;;;14.23;10.90;;;9.80;1.00;;;;;;5057245;28;21064;-69
2021/03/31 07:25:38;;;;;;;13.63;12.23;;;10.00;1.00;;;;;;5056897;28;20439;-70
2021/03/31 07:28:05;;;;;;;15.00;10.90;;;10.10;99.90;;;;;;5058430;28;20454;-69
2021/03/31 07:30:32;;;;;;;15.90;12.03;;;10.30;1.00;;;;;;5062649;28;20264;-70
2021/03/31 07:33:14;;;;;;;14.77;11.37;;;10.50;1.00;;;;;;5067587;28;20651;-70
2021/03/31 07:35:40;;;;;;;13.80;12.40;;;10.70;99.90;;;;;;5072708;28;20423;-70
2021/03/31 07:38:06;;;;;;;15.53;11.40;;;10.80;99.90;;;;;;5070199;28;20901;-70
2021/03/31 07:40:34;;;;;;;11.83;10.53;;;11.00;1.00;;;;;;5074960;28;20690;-70
2021/03/31 07:43:10;;;;;;;12.33;11.03;;;11.20;1.00;;;;;;5071144;28;20514;-70
2021/03/31 07:45:43;;;;;;;12.90;10.70;;;11.30;1.00;;;;;;5069091;28;20445;-70
2021/03/31 07:48:10;;;;;;;14.07;11.73;;;11.50;99.90;;;;;;5068243;28;20416;-70
2021/03/31 07:50:36;;;;;;;14.77;12.03;;;11.70;99.90;;;;;;5067418;28;20443;-71
2021/03/31 07:53:03;;;;;;;13.20;11.80;;;11.80;86.90;;;;;;5068367;28;20447;-71
2021/03/31 07:55:47;;;;;;;13.70;11.70;;;12.00;1.00;;;;;;5067063;28;20173;-71
2021/03/31 07:58:12;;;;;;;13.63;11.83;;;12.20;1.00;;;;;;5065157;28;20444;-70
2021/03/31 08:00:44;;;;;;;12.93;11.63;;;12.50;99.90;;;;;;5066993;28;20805;-69
2021/03/31 08:03:11;;;;;;;14.57;12.13;;;12.70;99.90;;;;;;5068020;28;20190;-70
2021/03/31 08:06:15;;;;;;;14.00;11.33;;;12.80;99.90;;;;;;5067768;28;20952;-70
2021/03/31 08:08:50;;;;;;;15.30;12.23;;;13.10;57.40;;;;;;5068795;28;20430;-70
2021/03/31 08:11:40;;;;;;;13.40;11.30;;;13.30;1.00;;;;;;5067245;28;20545;-71
2021/03/31 08:14:08;;;;;;;12.90;11.60;;;13.40;1.00;;;;;;5058497;28;20543;-71
2021/03/31 08:16:45;;;;;;;14.00;12.00;;;13.60;1.00;;;;;;5068776;28;20460;-70
2021/03/31 08:19:32;;;;;;;16.20;12.23;;;13.90;1.00;;;;;;5067271;28;20438;-71
2021/03/31 08:22:18;;;;;;;13.87;11.30;;;14.10;1.00;;;;;;5068549;28;20466;-71
2021/03/31 08:24:46;;;;;;;13.63;12.23;;;14.30;1.00;;;;;;5070926;28;20457;-71
2021/03/31 08:27:13;;;;;;;14.37;11.40;;;14.60;1.00;;;;;;5071978;28;20423;-70
2021/03/31 08:29:42;;;;;;;12.60;11.30;;;14.80;1.00;;;;;;5071347;28;20415;-70
2021/03/31 08:32:09;;;;;;;12.90;11.60;;;15.00;1.00;;;;;;5072193;28;20775;-71
2021/03/31 08:34:35;;;;;;;13.47;11.37;;;15.40;1.00;;;;;;5071762;28;20803;-70
2021/03/31 08:37:04;;;;;;;13.27;11.23;;;15.70;1.00;;;;;;5071914;28;20418;-71
2021/03/31 08:39:31;;;;;;;17.53;11.87;;;16.20;1.00;;;;;;5071514;28;21042;-71
2021/03/31 08:42:00;;;;;;;14.30;12.13;;;16.80;1.00;;;;;;5071844;28;21160;-71
2021/03/31 08:44:43;;;;;;;13.03;11.73;;;17.40;99.90;;;;;;5071876;28;20427;-71
2021/03/31 08:47:23;;;;;;;14.27;12.23;;;17.90;99.90;;;;;;5067381;28;20780;-70
2021/03/31 08:49:59;;;;;;;13.87;10.87;;;18.90;99.90;;;;;;5071754;28;20417;-71
2021/03/31 08:52:33;;;;;;;11.00;9.90;;;19.60;99.90;;;;;;5070373;28;20569;-68
2021/03/31 08:54:58;;;;;;;12.57;11.27;;;20.50;99.90;;;;;;5070567;28;20495;-68
2021/03/31 08:57:29;;;;;;;13.30;11.70;;;21.30;99.90;;;;;;5071623;28;20534;-68
2021/03/31 08:59:58;;;;;;;11.87;10.67;;;22.10;99.90;;;;;;5066275;28;20324;-68
2021/03/31 09:02:29;;;;;;;12.67;11.47;;;23.00;99.90;;;;;;5067232;28;20523;-68
2021/03/31 09:04:57;;;;;;;11.13;10.07;;;23.50;99.90;;;;;;5071931;28;20475;-68
2021/03/31 09:07:23;;;;;;;13.40;11.43;;;23.80;99.90;;;;;;5070209;28;20481;-68
2021/03/31 09:09:48;;;;;;;11.97;10.87;;;23.60;99.90;;;;;;5071265;28;20419;-69
2021/03/31 09:12:17;;;;;;;12.10;10.90;;;24.20;99.90;;;;;;5071409;28;20427;-67
2021/03/31 09:14:52;;;;;;;12.97;10.57;;;25.10;99.90;;;;;;5071006;28;20454;-68
2021/03/31 09:17:22;;;;;;;11.50;10.40;;;25.50;99.90;;;;;;5071362;28;20984;-68
2021/03/31 09:19:51;;;;;;;12.27;11.00;;;25.90;99.90;;;;;;5071341;28;20488;-68
2021/03/31 09:22:18;;;;;;;13.90;12.23;;;26.80;99.90;;;;;;5069494;28;21043;-68
2021/03/31 09:24:47;;;;;;;11.87;10.60;;;26.80;99.90;;;;;;5071258;28;20418;-68
2021/03/31 09:27:16;;;;;;;11.10;10.00;;;27.30;99.90;;;;;;5070359;28;20455;-69
2021/03/31 09:29:44;;;;;;;11.23;10.00;;;27.70;99.90;;;;;;5071365;28;20427;-68
2021/03/31 09:32:16;;;;;;;11.23;9.93;;;28.30;99.90;;;;;;5070561;28;20924;-68
2021/03/31 09:34:43;;;;;;;11.97;10.87;;;28.60;99.90;;;;;;5067208;28;20447;-68
2021/03/31 09:37:11;;;;;;;11.50;10.20;;;29.30;99.90;;;;;;5070155;28;20419;-68
2021/03/31 09:39:43;;;;;;;14.83;10.47;;;29.40;99.90;;;;;;5070509;28;20430;-68
2021/03/31 09:42:15;;;;;;;12.50;10.57;;;29.30;99.90;;;;;;5067959;28;20517;-68
2021/03/31 09:44:41;;;;;;;11.70;9.50;;;29.20;99.90;;;;;;5070952;28;20890;-68
2021/03/31 09:47:07;;;;;;;10.37;9.47;;;29.50;99.90;;;;;;5069931;28;20489;-68
2021/03/31 09:49:33;;;;;;;11.13;9.97;;;29.20;99.90;;;;;;5070844;28;20184;-68
2021/03/31 09:52:00;;;;;;;10.70;9.60;;;29.30;99.90;;;;;;5068884;28;20441;-67
2021/03/31 09:54:27;;;;;;;10.97;10.07;;;29.80;99.90;;;;;;5070586;28;20449;-67
2021/03/31 09:56:52;;;;;;;11.30;10.27;;;30.60;99.90;;;;;;5070546;28;20450;-68
2021/03/31 09:59:19;;;;;;;12.07;10.73;;;31.40;99.90;;;;;;5070804;28;20480;-68
2021/03/31 10:01:44;;;;;;;10.93;9.47;;;31.70;99.90;;;;;;5069263;28;20635;-68
2021/03/31 10:04:10;;;;;;;11.83;10.10;;;31.20;99.90;;;;;;5070725;28;20483;-68
2021/03/31 10:06:35;;;;;;;10.37;9.47;;;31.20;99.90;;;;;;5068000;28;20648;-68
2021/03/31 10:09:12;;;;;;;10.77;9.60;;;31.10;99.90;;;;;;5069000;28;20276;-68
2021/03/31 10:11:38;;;;;;;9.23;8.43;;;30.80;99.90;;;;;;5069790;28;20212;-68
2021/03/31 10:14:05;;;;;;;9.93;9.13;;;30.70;99.90;;;;;;5074997;28;20428;-69
2021/03/31 10:16:39;;;;;;;9.77;8.60;;;31.40;99.90;;;;;;5070102;28;20568;-69
2021/03/31 10:19:07;;;;;;;9.47;8.77;;;32.30;99.90;;;;;;5068378;28;20436;-69
2021/03/31 10:21:34;;;;;;;9.13;8.33;;;32.70;99.90;;;;;;5069907;28;20466;-68
2021/03/31 10:24:02;;;;;;;7.97;7.27;;;33.40;99.90;;;;;;5070123;28;20493;-69
2021/03/31 10:26:30;;;;;;;8.57;7.67;;;33.60;99.90;;;;;;5069498;28;20428;-69
2021/03/31 10:29:06;;;;;;;8.57;7.80;;;34.10;99.90;;;;;;5069274;28;20431;-69
2021/03/31 10:31:39;;;;;;;8.40;7.50;;;33.40;99.90;;;;;;5068385;28;20443;-68
2021/03/31 10:34:06;;;;;;;8.47;7.67;;;32.60;99.90;;;;;;5069715;28;20944;-69
2021/03/31 10:37:17;;;;;;;8.37;7.67;;;32.70;99.90;;;;;;5069711;28;20424;-69
2021/03/31 10:50:47;;;;;;;8.27;7.43;;;34.40;99.90;;;;;;5068647;28;20467;-69
2021/03/31 10:53:13;;;;;;;7.90;7.20;;;33.70;99.90;;;;;;5068701;28;20469;-69
2021/03/31 10:55:42;;;;;;;8.53;7.73;;;34.50;99.90;;;;;;5068034;28;20945;-69
2021/03/31 10:58:08;;;;;;;7.80;7.00;;;34.60;99.90;;;;;;5064921;28;20720;-69
2021/03/31 11:00:34;;;;;;;8.47;7.77;;;34.70;99.90;;;;;;5069633;28;20526;-69
2021/03/31 11:03:00;;;;;;;8.37;7.67;;;35.70;99.90;;;;;;5069041;28;21020;-69
2021/03/31 11:05:25;;;;;;;7.50;6.80;;;35.60;99.90;;;;;;5069769;28;20493;-69
2021/03/31 11:07:51;;;;;;;8.10;7.50;;;35.40;99.90;;;;;;5067955;28;20219;-70
2021/03/31 11:10:16;;;;;;;10.00;8.30;;;35.70;99.90;;;;;;5069453;28;20651;-70
2021/03/31 11:12:43;;;;;;;8.67;7.97;;;36.10;99.90;;;;;;5071471;28;20188;-70
2021/03/31 11:15:12;;;;;;;9.20;8.30;;;37.10;99.90;;;;;;5064385;28;20177;-70
2021/03/31 11:20:32;;;;;;;8.80;7.93;;;36.00;99.90;;;;;;5068832;28;20431;-70
2021/03/31 11:26:00;;;;;;;8.50;7.10;;;35.50;99.90;;;;;;5069133;28;20426;-70
2021/03/31 11:28:26;;;;;;;8.63;7.93;;;36.00;99.90;;;;;;5069084;28;20415;-70
2021/03/31 11:30:53;;;;;;;9.10;8.30;;;35.60;99.90;;;;;;5067691;28;20933;-70
2021/03/31 11:33:22;;;;;;;8.80;8.10;;;35.50;99.90;;;;;;5068867;28;20411;-70
2021/03/31 11:35:48;;;;;;;9.20;8.30;;;36.00;99.90;;;;;;5071895;28;20418;-70
2021/03/31 11:38:14;;;;;;;9.83;8.90;;;36.40;99.90;;;;;;5069709;28;20438;-70
2021/03/31 11:40:40;;;;;;;9.13;7.70;;;37.10;99.90;;;;;;5068370;28;20803;-69
2021/03/31 11:43:07;;;;;;;9.83;8.67;;;36.40;99.90;;;;;;5067607;28;20185;-69
2021/03/31 11:45:33;;;;;;;9.80;9.00;;;35.90;99.90;;;;;;5067506;28;20431;-69
2021/03/31 11:47:58;;;;;;;10.50;9.10;;;35.90;99.90;;;;;;5069127;28;20430;-69
2021/03/31 11:50:25;;;;;;;9.23;8.53;;;35.60;99.90;;;;;;5066219;28;20220;-70
2021/03/31 11:52:54;;;;;;;9.23;8.40;;;36.00;99.90;;;;;;5065516;28;20189;-70
2021/03/31 11:55:21;;;;;;;9.50;8.70;;;35.90;99.70;;;;;;5068961;28;20473;-69
2021/03/31 11:57:47;;;;;;;10.57;9.60;;;36.30;99.90;;;;;;5068733;28;20426;-70
2021/03/31 12:00:13;;;;;;;10.40;9.40;;;36.90;99.40;;;;;;5071692;28;20537;-70
2021/03/31 12:02:39;;;;;;;11.43;9.93;;;37.40;99.40;;;;;;5072172;28;20193;-69
2021/03/31 12:05:05;;;;;;;10.43;9.63;;;38.00;99.20;;;;;;5067872;28;20477;-69
2021/03/31 12:07:31;;;;;;;10.77;9.87;;;37.80;99.20;;;;;;5072820;28;20173;-70
2021/03/31 12:09:56;;;;;;;10.40;9.50;;;37.90;98.30;;;;;;5072894;28;20415;-69
2021/03/31 12:12:22;;;;;;;11.30;10.30;;;37.50;98.90;;;;;;5073744;28;20262;-69
2021/03/31 12:14:47;;;;;;;11.80;10.90;;;37.50;98.10;;;;;;5072813;28;20215;-70
2021/03/31 12:17:13;;;;;;;12.17;10.73;;;36.60;98.30;;;;;;5072721;28;20258;-70
2021/03/31 12:19:39;;;;;;;11.50;10.43;;;36.00;97.70;;;;;;5073034;28;20548;-70
2021/03/31 12:22:05;;;;;;;11.73;10.70;;;36.40;96.30;;;;;;5070614;28;20213;-70
2021/03/31 12:24:31;;;;;;;12.20;10.93;;;36.80;97.60;;;;;;5088274;28;20267;-69
2021/03/31 12:27:04;;;;;;;11.10;10.30;;;36.00;97.00;;;;;;5072348;28;20252;-69
2021/03/31 12:29:31;;;;;;;12.33;11.13;;;35.60;96.90;;;;;;5070569;28;20435;-70
2021/03/31 12:31:57;;;;;;;12.43;11.43;;;36.00;95.80;;;;;;5072569;28;20763;-70
2021/03/31 12:34:23;;;;;;;12.10;11.10;;;35.90;97.00;;;;;;5071246;28;21383;-70
2021/03/31 12:36:49;;;;;;;11.70;10.60;;;35.60;96.60;;;;;;5070898;28;20513;-70
2021/03/31 12:39:14;;;;;;;11.47;10.37;;;35.40;96.30;;;;;;5071649;28;20185;-70
2021/03/31 12:41:40;;;;;;;11.67;10.40;;;35.10;97.00;;;;;;5070540;28;20283;-70
2021/03/31 12:44:06;;;;;;;11.37;10.57;;;35.10;96.00;;;;;;5072038;28;20174;-70
2021/03/31 12:46:31;;;;;;;12.20;11.20;;;35.50;94.70;;;;;;5070232;28;20181;-70
2021/03/31 12:48:57;;;;;;;11.47;10.30;;;35.80;94.60;;;;;;5070824;28;20421;-71
2021/03/31 12:54:02;;;;;;;10.97;9.90;;;35.60;94.10;;;;;;5070172;28;20179;-69
2021/03/31 12:56:28;;;;;;;11.50;10.50;;;35.90;94.10;;;;;;5068021;28;20442;-69
2021/03/31 12:58:53;;;;;;;12.30;11.20;;;35.80;94.30;;;;;;5071905;28;20450;-69
2021/03/31 13:01:26;;;;;;;11.97;10.83;;;36.70;94.10;;;;;;5071165;28;20200;-69
2021/03/31 13:03:53;;;;;;;10.77;9.77;;;36.60;94.20;;;;;;5070061;28;20266;-70
2021/03/31 13:06:20;;;;;;;11.90;10.80;;;36.20;94.50;;;;;;5071798;28;20415;-70
2021/03/31 13:08:48;;;;;;;11.07;10.17;;;36.20;94.20;;;;;;5069824;28;20442;-70